Craigsville, West Virginia
Current Conditions -  °F | °C
As of 3:35 AM on Sunday 26 Oct 2014 (Local Time) from KLWB Reporting Station
Broken Clouds Broken Clouds  
Wind Chill: 60°   Ceiling: 4500
Heat Index: 60°   Visibility: 10mi
Dew Point: 49°   Wind: 3mph
Humidity: 67%   Direction: 300°WNW
Pressure: 29.86"   Gusts: NA
Location:  38.33°N, 80.65°W
Report Text: KLWB 260735Z AUTO 30003KT 10SM SCT035 BKN045 16/10 A2986 RMK AO2 T01560095
Loading
Personal Weather Stations






























Interactive Weather Map
Tropical Storm Tracking
New forecast layout! Learn more

10-Day Weather Forecast

Advertisements
Track Severe Weather on mobile